Crooked Creek Research Lab Weather observations

Data are for 10 minute period ending at time listed.
 Day   Time    Ave.   Ave.  Ave.  Vector   Max.   Stn.    Total    Solar   Ave.   Snow 
  of    of     Air    Rel.  Wind   Wind    Wind   Baro.  Precip.   Rad.    Soil   Depth
Year   Day     Temp.  Hum.  Speed  Dir.    Gust   Pres.                    Temp.       
2016   (PST)    F      %     mph   deg.    mph     mb.     in.     W/m2     F      in. 
---------------------------------------------------------------------------------------  
 272   15:20   52.1    43    6.6   131     13.3   706.7    0.00     262    999.0    -0.6
 272   15:30   51.4    44    4.8   120     11.5   706.5    0.00     277    999.0    -0.6
 272   15:40   51.9    43    6.5   136     11.6   706.7    0.00     337    999.0    -0.6
 272   15:50   51.3    43    5.1   122     11.2   706.5    0.00     198    999.0    -0.6
 272   16:00   51.2    43    4.8   140     10.7   706.5    0.00     167    999.0    -0.6
 272   16:10   51.6    44    1.7   105      6.3   706.6    0.00     135    999.0    -0.6
 272   16:20   51.4    44    3.6    17      8.4   706.7    0.00      99    999.0    -0.6
 272   16:30   50.7    46    3.9   141      8.5   706.5    0.00     117    999.0    -0.6
 272   16:40   50.8    46    4.3   137      8.2   706.5    0.00     124    999.0    -0.6
 272   16:50   50.4    48    4.2   131      8.0   706.5    0.00      66    999.0    -0.6
 272   17:00   49.7    49    4.3   122      9.5   706.6    0.00      50    999.0    -0.6
 272   17:10   49.0    51    3.1   131      7.8   706.6    0.00      24    999.0    -0.6
 272   17:20   48.3    53    4.5   116     11.8   706.6    0.00      12    999.0    -0.6
 272   17:30   47.8    54    4.1   135     11.2   706.5    0.00       5    999.0    -0.6
 272   17:40   47.4    56    3.8   126      9.1   706.6    0.00       2    999.0    -0.6
 272   17:50   47.0    57    3.4   113     10.1   706.6    0.00       1    999.0    -0.6
 272   18:00   46.6    59    3.5    82      7.0   706.7    0.00       0    999.0    -0.6
 272   18:10   46.2    60    1.8    75      6.0   706.7    0.00       0    999.0    -0.6
 272   18:20   45.8    61    1.1    92      5.2   706.8    0.00       0    999.0    -0.6
 272   18:30   45.5    61    1.3     7      5.1   706.8    0.00       0    999.0    -0.6
 272   18:40   45.1    62    0.6   334      2.6   707.0    0.00       0    999.0    -0.7
 272   18:50   44.7    64    1.2    90      3.5   707.0    0.00       0    999.0    -0.6
 272   19:00   43.7    65    0.2    77      1.5   707.0    0.00       0    999.0    -0.7
 272   19:10   42.1    67    0.3   352      2.0   707.0    0.00       0    999.0    -0.7
 272   19:20   40.7    68    0.5    63      1.7   707.0    0.00       0    999.0    -0.8
 272   19:30   39.5    70    0.5    91      2.2   707.0    0.00       0    999.0    -0.7
 272   19:40   38.5    71    1.6   135      3.8   707.0    0.00       0    999.0    -0.7
 272   19:50   37.3    73    1.0   176      3.3   707.2    0.00       0    999.0    -0.6
 272   20:00   37.4    73    0.1   196      0.9   707.1    0.00       0    999.0    -0.6
 272   20:10   37.4    73    0.2   195      1.2   707.1    0.00       0    999.0    -0.6
 272   20:20   37.4    73    0.5   218      2.5   707.2    0.00       0    999.0    -0.7
 272   20:30   37.3    74    0.1   212      0.9   707.1    0.00       0    999.0    -0.7
 272   20:40   36.5    74    0.0     0      0.0   707.2    0.00       0    999.0    -0.7
 272   20:50   35.8    76    0.3   213      1.8   707.2    0.00       0    999.0    -0.7
 272   21:00   35.6    77    0.2   172      1.6   707.2    0.00       0    999.0    -0.7
 272   21:10   35.3    76    1.0   156      2.3   707.1    0.00       0    999.0    -0.7
 272   21:20   34.7    76    0.4   156      2.1   707.1    0.00       0    999.0    -0.6
 272   21:30   34.4    76    0.5   155      2.2   707.1    0.00       0    999.0    -0.6
 272   21:40   34.4    78    0.0     0      0.0   707.1    0.00       0    999.0    -0.6
 272   21:50   35.4    75    2.4   192      3.8   707.2    0.00       0    999.0    -0.6
 272   22:00   35.6    73    1.4   131      3.2   707.2    0.00       0    999.0    -0.7
 272   22:10   34.4    76    0.1   131      0.7   707.1    0.00       0    999.0    -0.7
 272   22:20   33.7    78    1.2   134      2.9   707.1    0.00       0    999.0    -0.7
 272   22:30   34.0    79    0.3   165      1.8   707.0    0.00       0    999.0    -0.6
 272   22:40   33.7    80    0.1   154      1.4   707.0    0.00       0    999.0    -0.8
 272   22:50   33.2    82    0.5   148      3.4   707.1    0.00       0    999.0    -0.7
 272   23:00   32.8    84    0.3   144      2.4   707.1    0.00       0    999.0    -0.6
 272   23:10   33.2    84    0.8   146      2.6   707.2    0.00       0    999.0    -0.7
 272   23:20   33.0    84    0.3   131      1.5   707.1    0.00       0    999.0    -0.7
 272   23:30   32.9    86    0.4   136      1.7   707.0    0.00       0    999.0    -0.7
 272   23:40   33.2    84    1.0   190      3.3   707.0    0.00       0    999.0    -0.6
 272   23:50   33.0    83    1.5   134      4.2   707.0    0.00       0    999.0    -0.8
 273    0:00   32.6    87    0.9   161      2.3   706.8    0.00       0    999.0    -0.6
 273    0:10   33.0    84    1.0   224      3.6   706.8    0.00       0    999.0    -0.7
 273    0:20   32.9    83    0.8   228      3.8   706.8    0.00       0    999.0    -0.8
 273    0:30   31.9    82    2.3   220      4.0   706.8    0.00       0    999.0    -0.7
 273    0:40   32.4    83    1.8   154      3.8   706.8    0.00       0    999.0    -0.7
 273    0:50   32.2    83    0.6   219      3.8   706.8    0.00       0    999.0    -0.7
 273    1:00   31.7    84    0.6   228      3.0   706.8    0.00       0    999.0    -0.7
 273    1:10   31.2    84    2.1   219      4.4   706.8    0.00       0    999.0    -0.8
 273    1:20   32.1    83    0.8   202      2.6   706.8    0.00       0    999.0    -0.7
 273    1:30   32.8    81    1.6   200      4.8   706.8    0.00       0    999.0    -0.7
 273    1:40   33.2    81    1.1   195      3.1   706.7    0.00       0    999.0    -0.7
 273    1:50   34.5    79    1.9   134      3.4   706.7    0.00       0    999.0    -0.7
 273    2:00   33.3    80    1.5   133      2.9   706.7    0.00       0    999.0    -0.8
 273    2:10   32.9    82    0.8   176      4.1   706.7    0.00       0    999.0    -0.7
 273    2:20   33.1    82    2.5   170      4.3   706.8    0.00       0    999.0    -0.7
 273    2:30   35.0    77    1.4   202      3.4   706.8    0.00       0    999.0    -0.7
 273    2:40   34.1    80    1.1   183      3.9   706.7    0.00       0    999.0    -0.8
 273    2:50   34.2    79    2.2   144      4.0   706.7    0.00       0    999.0    -0.8
 273    3:00   33.6    80    0.8   208      3.7   706.7    0.00       0    999.0    -0.8
 273    3:10   33.6    81    2.4   214      6.7   706.8    0.00       0    999.0    -0.7
 273    3:20   34.2    79    0.4   211      2.1   706.8    0.00       0    999.0    -0.9
 273    3:30   32.0    81    0.3   229      2.0   706.8    0.00       0    999.0    -0.8
 273    3:40   30.5    85    0.4   224      2.0   706.8    0.00       0    999.0    -0.7
 273    3:50   30.3    87    0.8   204      3.5   706.8    0.00       0    999.0    -0.5
 273    4:00   31.4    84    1.0   222      4.7   706.8    0.00       0    999.0    -0.7
 273    4:10   31.4    84    0.8   206      3.7   706.8    0.00       0    999.0    -0.7
 273    4:20   30.7    85    0.7   219      2.2   706.9    0.00       0    999.0    -0.6
 273    4:30   30.1    86    0.6   233      3.4   707.0    0.00       0    999.0    -0.6
 273    4:40   30.0    88    0.1   216      1.8   707.0    0.00       0    999.0    -0.6
 273    4:50   30.5    87    0.3   166      1.4   707.0    0.00       0    999.0    -0.6
 273    5:00   30.4    86    1.0   139      3.7   707.0    0.00       0    999.0    -0.7
 273    5:10   30.4    87    0.5   226      4.1   707.1    0.00       0    999.0    -0.6
 273    5:20   30.2    87    0.7   222      3.2   707.3    0.00       0    999.0    -0.6
 273    5:30   29.9    87    1.0   223      3.2   707.2    0.00       0    999.0    -0.7
 273    5:40   30.2    87    0.7   218      3.9   707.3    0.00       1    999.0    -0.7
 273    5:50   30.5    88    0.4   177      1.8   707.4    0.00       4    999.0    -0.4
 273    6:00   31.3    87    0.3   216      1.8   707.4    0.00       8    999.0    -0.1
 273    6:10   31.6    86    0.5   208      2.6   707.5    0.00      10    999.0    26.5
 273    6:20   31.7    88    0.5   223      2.3   707.5    0.00      13    999.0     8.5
 273    6:30   32.3    87    0.2   220      1.8   707.6    0.00      15    999.0    -0.7
 273    6:40   33.6    86    0.4   159      2.4   707.7    0.00      16    999.0     8.5
 273    6:50   35.8    84    1.5   136      5.2   707.8    0.00      18    999.0    -0.6
 273    7:00   38.4    78    0.9   126      2.5   707.9    0.00      22    999.0    -0.6
 273    7:10   38.9    77    0.4    80      1.5   707.9    0.00      42    999.0    -0.6
 273    7:20   42.6    70    0.8   138      5.4   707.9    0.00     284    999.0    -0.5
 273    7:30   46.0    63    2.6   221      7.2   708.1    0.00     314    999.0    -0.5
 273    7:40   46.3    62    3.1   221      7.7   708.0    0.00     346    999.0    -0.5
 273    7:50   46.8    61    2.8   215      7.2   708.2    0.00     378    999.0    -0.5
 273    8:00   47.1    60    3.5   217      8.8   708.5    0.00     408    999.0    -0.7
 273    8:10   47.2    60    3.7   213      7.8   708.4    0.00     437    999.0    -0.7
 273    8:20   47.8    58    3.5   226      8.1   708.4    0.00     466    999.0    -0.8
 273    8:30   48.0    58    4.3   220      8.7   708.7    0.00     493    999.0    -0.7
 273    8:40   48.3    56    4.0   222      8.6   708.7    0.00     521    999.0    -0.7
 273    8:50   49.3    55    4.1   217      9.9   708.7    0.00     551    999.0    -0.8
 273    9:00   50.0    54    3.3   212      7.5   708.8    0.00     502    999.0    -0.7
 273    9:10   49.6    55    4.3   216      7.0   708.8    0.00     473    999.0    -0.7
 273    9:20   49.3    56    5.2   226     10.2   708.8    0.00     327    999.0    -0.8
 273    9:30   47.6    60    3.3   220      9.2   708.8    0.00     301    999.0    -0.7
 273    9:40   48.7    58    5.9   221     13.7   708.9    0.00     530    999.0    -0.7
 273    9:50   48.6    59    4.5   226     13.4   708.9    0.00     224    999.0    -0.6
 273   10:00   48.3    60    4.4   226     11.2   708.9    0.00     249    999.0    -0.7
 273   10:10   48.1    61    4.8   224     11.1   709.0    0.00     152    999.0    -0.7
 273   10:20   48.3    61    2.3   144      7.9   709.0    0.00     144    999.0    -0.6
 273   10:30   48.9    59    2.3   190      6.6   709.0    0.00     285    999.0    -0.6
 273   10:40   51.5    54    3.6   209      9.2   708.9    0.00     886    999.0    -0.7
 273   10:50   53.1    52    4.1   209     12.3   708.9    0.00     981    999.0    -0.6
 273   11:00   53.3    52    6.3   228     19.6   708.9    0.00     933    999.0    -0.7
 273   11:10   53.3    52    6.1   238     15.2   709.0    0.00     721    999.0    -0.6
 273   11:20   52.7    53    6.3   234     12.0   708.9    0.00     836    999.0    -0.5
 273   11:30   52.3    52    5.5   282     11.4   709.0    0.00     391    999.0    -0.5
 273   11:40   50.7    54    6.4   339     15.4   709.0    0.00     253    999.0    -0.7
 273   11:50   47.0    61    9.4    41     25.4   709.0    0.00     231    999.0    -0.7
 273   12:00   45.6    65    6.8    33     21.3   709.0    0.00     278    999.0    -0.6
 273   12:10   46.8    60    5.5   344     11.0   708.9    0.00     380    999.0    -0.6
 273   12:20   48.7    55    4.0    16      9.1   708.7    0.00     366    999.0    -0.6
 273   12:30   50.8    51    3.9    58      7.0   708.6    0.00     408    999.0    -0.7
 273   12:40   51.1    49    3.8    43      8.6   708.5    0.00     266    999.0    -0.6
 273   12:50   51.3    48    3.7    76      7.5   708.4    0.00     405    999.0    -0.7
 273   13:00   52.5    47    2.4    29      7.9   708.4    0.00     328    999.0    -0.7
 273   13:10   53.2    45    3.3   160      8.4   708.4    0.00     628    999.0    -0.6
 273   13:20   54.9    42    3.7   188      9.8   708.4    0.00     628    999.0    -0.6
 273   13:30   54.3    45    4.8   137      9.9   708.2    0.00     425    999.0    -0.6
 273   13:40   52.7    51    5.3   129     10.5   708.4    0.00     578    999.0    -0.5
 273   13:50   55.6    39    5.4   238     13.1   708.2    0.00     823    999.0    -0.5
 273   14:00   56.5    38    6.6   241     13.4   708.4    0.00     746    999.0    -0.6
 273   14:10   56.0    38    5.8   236     11.8   708.2    0.00     574    999.0    -0.7
 273   14:20   55.5    38    6.5   245     14.5   708.2    0.00     613    999.0    -0.7
 273   14:30   56.3    38    4.8   220     14.0   708.2    0.00     599    999.0    -0.6
 273   14:40   56.7    37    5.8   243     13.9   708.2    0.00     574    999.0    -0.6
 273   14:50   55.3    40    6.1   244     14.1   708.1    0.00     323    999.0    -0.8
 273   15:00   55.3    39    5.1   229     14.2   708.1    0.00     508    999.0    -0.7
 273   15:10   55.9    39    6.3   230     12.6   708.1    0.00     469    999.0    -0.7

Return to Crooked Creek Research Lab graphs page.


Western Regional Climate Center,wrcc@dri.edu